Time;durP1;ratioP1;P1;durP2;ratioP2;P2;SDS_P1;SDS_P2;PMS_P1;PMS_P2;Temp;Humidity;BMP_temperature;BMP_pressure;BME280_temperature;BME280_humidity;BME280_pressure;Samples;Min_cycle;Max_cycle;Signal;HPM_P1;HPM_P2
2021/05/07 00:01:45;;;;;;;;;;;23.00;38.50;;;;;;1579030;73;762;-55
2021/05/07 00:03:47;;;;;;;;;;;23.10;38.60;;;;;;1579825;73;782;-56
2021/05/07 00:05:56;;;;;;;;;;;23.00;38.40;;;;;;1580874;73;704;-57
2021/05/07 00:07:58;;;;;;;;;;;23.00;38.40;;;;;;1582768;73;664;-55
2021/05/07 00:10:00;;;;;;;;;;;23.10;38.50;;;;;;1581999;73;1151;-53
2021/05/07 00:12:04;;;;;;;;;;;23.10;38.60;;;;;;1585500;73;722;-57
2021/05/07 00:14:06;;;;;;;;;;;23.10;38.60;;;;;;1586146;73;1128;-57
2021/05/07 00:16:07;;;;;;;;;;;23.00;38.40;;;;;;1583190;74;695;-56
2021/05/07 00:18:09;;;;;;;;;;;23.00;38.40;;;;;;1574917;74;730;-57
2021/05/07 00:20:11;;;;;;;;;;;23.00;38.30;;;;;;1583344;73;1254;-58
2021/05/07 00:22:13;;;;;;;;;;;23.00;38.30;;;;;;1584749;75;865;-56
2021/05/07 00:24:15;;;;;;;;;;;23.00;38.30;;;;;;1584414;75;644;-53
2021/05/07 00:26:17;;;;;;;;;;;23.00;38.30;;;;;;1579507;75;1927;-53
2021/05/07 00:28:19;;;;;;;;;;;23.00;38.30;;;;;;1583765;75;729;-57
2021/05/07 00:30:21;;;;;;;;;;;23.00;38.20;;;;;;1573423;73;1099;-55
2021/05/07 00:32:23;;;;;;;;;;;23.00;38.30;;;;;;1582089;75;807;-54
2021/05/07 00:34:25;;;;;;;;;;;23.00;38.20;;;;;;1580639;75;811;-57
2021/05/07 00:36:27;;;;;;;;;;;23.00;38.40;;;;;;1585059;74;822;-57
2021/05/07 00:38:29;;;;;;;;;;;23.00;38.30;;;;;;1572309;73;765;-57
2021/05/07 00:40:31;;;;;;;;;;;23.00;38.40;;;;;;1587383;73;1187;-57
2021/05/07 00:42:32;;;;;;;;;;;23.00;38.40;;;;;;1588995;75;723;-57
2021/05/07 00:44:34;;;;;;;;;;;23.00;38.30;;;;;;1586838;75;691;-56
2021/05/07 00:46:37;;;;;;;;;;;23.00;38.30;;;;;;1583588;73;1933;-55
2021/05/07 00:48:39;;;;;;;;;;;23.00;38.30;;;;;;1584252;74;705;-55
2021/05/07 00:50:43;;;;;;;;;;;23.00;38.20;;;;;;1587844;73;1250;-54
2021/05/07 00:52:45;;;;;;;;;;;23.00;38.20;;;;;;1582769;73;653;-57
2021/05/07 00:54:47;;;;;;;;;;;23.00;38.30;;;;;;1576409;73;745;-55
2021/05/07 00:56:49;;;;;;;;;;;23.00;38.30;;;;;;1584250;73;824;-57
2021/05/07 00:58:52;;;;;;;;;;;23.00;38.40;;;;;;1553385;75;812;-58
2021/05/07 01:00:53;;;;;;;;;;;23.00;38.30;;;;;;1564722;74;1122;-57
2021/05/07 01:02:55;;;;;;;;;;;23.00;38.40;;;;;;1558367;75;730;-56
2021/05/07 01:04:57;;;;;;;;;;;23.00;38.30;;;;;;1563967;75;732;-55
2021/05/07 01:07:00;;;;;;;;;;;23.00;38.40;;;;;;1568195;75;1934;-58
2021/05/07 01:09:02;;;;;;;;;;;22.90;38.40;;;;;;1563487;75;758;-55
2021/05/07 01:11:04;;;;;;;;;;;22.90;38.40;;;;;;1555343;74;1128;-57
2021/05/07 01:13:06;;;;;;;;;;;22.90;38.40;;;;;;1562986;75;931;-57
2021/05/07 01:15:09;;;;;;;;;;;23.00;38.40;;;;;;1559645;74;671;-55
2021/05/07 01:17:11;;;;;;;;;;;22.90;38.40;;;;;;1567495;75;853;-53
2021/05/07 01:19:14;;;;;;;;;;;23.00;38.40;;;;;;1558045;75;664;-56
2021/05/07 01:21:16;;;;;;;;;;;23.00;38.40;;;;;;1555955;74;807;-54
2021/05/07 01:23:18;;;;;;;;;;;23.00;38.50;;;;;;1564405;75;737;-57
2021/05/07 01:25:20;;;;;;;;;;;23.00;38.60;;;;;;1558260;75;771;-57
2021/05/07 01:27:22;;;;;;;;;;;23.00;38.50;;;;;;1587258;73;1964;-57
2021/05/07 01:29:24;;;;;;;;;;;23.00;38.50;;;;;;1555388;76;1086;-57
2021/05/07 01:31:26;;;;;;;;;;;23.00;38.60;;;;;;1554711;75;732;-57
2021/05/07 01:33:28;;;;;;;;;;;23.00;38.60;;;;;;1558060;76;805;-56
2021/05/07 01:35:30;;;;;;;;;;;23.00;38.60;;;;;;1552914;76;773;-55
2021/05/07 01:37:32;;;;;;;;;;;22.90;38.60;;;;;;1573503;75;668;-57
2021/05/07 01:39:34;;;;;;;;;;;22.90;38.60;;;;;;1581569;73;1238;-57
2021/05/07 01:41:36;;;;;;;;;;;23.00;38.60;;;;;;1587914;73;744;-54
2021/05/07 01:43:38;;;;;;;;;;;22.90;38.50;;;;;;1578726;75;743;-57
2021/05/07 01:45:40;;;;;;;;;;;23.00;38.50;;;;;;1584330;73;707;-56
2021/05/07 01:47:42;;;;;;;;;;;23.00;38.40;;;;;;1582194;73;1926;-57
2021/05/07 01:49:44;;;;;;;;;;;22.90;38.40;;;;;;1575000;73;1144;-56
2021/05/07 01:51:46;;;;;;;;;;;23.00;38.40;;;;;;1567694;73;690;-54
2021/05/07 01:53:48;;;;;;;;;;;22.90;38.40;;;;;;1581702;73;718;-55
2021/05/07 01:55:50;;;;;;;;;;;22.90;38.40;;;;;;1581962;73;737;-57
2021/05/07 01:57:52;;;;;;;;;;;23.00;38.40;;;;;;1544925;73;215914;-75
2021/05/07 01:59:54;;;;;;;;;;;22.90;38.40;;;;;;1533331;75;796;-73
2021/05/07 02:01:56;;;;;;;;;;;23.00;38.30;;;;;;1550077;75;706;-73
2021/05/07 02:03:57;;;;;;;;;;;23.00;38.30;;;;;;1564959;74;673;-74
2021/05/07 02:05:59;;;;;;;;;;;23.00;38.30;;;;;;1567003;74;822;-73
2021/05/07 02:08:01;;;;;;;;;;;23.00;38.20;;;;;;1560686;74;1962;-75
2021/05/07 02:10:08;;;;;;;;;;;23.00;38.10;;;;;;1563488;74;716;-76
2021/05/07 02:12:10;;;;;;;;;;;23.00;38.10;;;;;;1564880;74;2128;-73
2021/05/07 02:14:11;;;;;;;;;;;23.00;38.00;;;;;;1566382;74;943;-74
2021/05/07 02:16:13;;;;;;;;;;;23.00;38.00;;;;;;1570964;74;1129;-77
2021/05/07 02:18:15;;;;;;;;;;;23.00;38.10;;;;;;1561898;74;774;-74
2021/05/07 02:20:18;;;;;;;;;;;23.00;38.00;;;;;;1576513;73;762;-75
2021/05/07 02:22:20;;;;;;;;;;;22.90;38.10;;;;;;1574605;73;736;-75
2021/05/07 02:24:22;;;;;;;;;;;22.90;38.10;;;;;;1578380;73;796;-77
2021/05/07 02:26:23;;;;;;;;;;;22.90;38.10;;;;;;1542351;76;1117;-74
2021/05/07 02:28:25;;;;;;;;;;;22.90;38.10;;;;;;1583603;73;1939;-76
2021/05/07 02:30:28;;;;;;;;;;;22.90;38.10;;;;;;1582763;73;793;-76
2021/05/07 02:32:30;;;;;;;;;;;22.90;38.20;;;;;;1586569;73;753;-76
2021/05/07 02:34:32;;;;;;;;;;;22.90;38.10;;;;;;1546238;75;757;-75
2021/05/07 02:36:34;;;;;;;;;;;22.90;38.10;;;;;;1546767;75;1115;-75
2021/05/07 02:38:38;;;;;;;;;;;22.80;38.00;;;;;;1575898;73;783;-72
2021/05/07 02:40:39;;;;;;;;;;;22.80;38.00;;;;;;1581328;73;1639;-74
2021/05/07 02:42:41;;;;;;;;;;;22.80;38.00;;;;;;1574572;73;777;-77
2021/05/07 02:44:43;;;;;;;;;;;22.90;38.10;;;;;;1581721;73;803;-75
2021/05/07 02:46:45;;;;;;;;;;;22.80;37.90;;;;;;1561088;74;1170;-75
2021/05/07 02:48:46;;;;;;;;;;;22.80;38.00;;;;;;1565600;74;1928;-75
2021/05/07 02:50:48;;;;;;;;;;;22.70;38.10;;;;;;1572439;73;733;-75
2021/05/07 02:52:50;;;;;;;;;;;22.60;38.10;;;;;;1560126;75;779;-76
2021/05/07 02:54:52;;;;;;;;;;;22.60;38.30;;;;;;1561843;74;755;-76
2021/05/07 02:56:54;;;;;;;;;;;22.60;38.40;;;;;;1557126;74;1157;-67
2021/05/07 02:58:56;;;;;;;;;;;22.50;38.60;;;;;;1558823;74;778;-69
2021/05/07 03:00:58;;;;;;;;;;;22.50;38.50;;;;;;1559943;74;798;-66
2021/05/07 03:02:59;;;;;;;;;;;22.40;38.50;;;;;;1561452;74;752;-66
2021/05/07 03:05:02;;;;;;;;;;;22.50;38.70;;;;;;1568670;74;784;-69
2021/05/07 03:07:04;;;;;;;;;;;22.40;38.70;;;;;;1569370;73;1954;-66
2021/05/07 03:09:06;;;;;;;;;;;22.30;38.80;;;;;;1570062;74;788;-67
2021/05/07 03:11:08;;;;;;;;;;;22.30;38.90;;;;;;1571144;74;761;-67
2021/05/07 03:13:10;;;;;;;;;;;22.30;38.90;;;;;;1577532;74;674;-68
2021/05/07 03:15:12;;;;;;;;;;;22.30;38.90;;;;;;1570617;74;813;-67
2021/05/07 03:17:14;;;;;;;;;;;22.30;38.90;;;;;;1567417;74;1119;-67
2021/05/07 03:19:16;;;;;;;;;;;22.20;38.90;;;;;;1569169;74;816;-65
2021/05/07 03:21:18;;;;;;;;;;;22.30;38.90;;;;;;1571390;74;739;-67
2021/05/07 03:23:20;;;;;;;;;;;22.20;38.80;;;;;;1564905;74;647;-67
2021/05/07 03:25:22;;;;;;;;;;;22.20;38.80;;;;;;1569216;74;768;-68
2021/05/07 03:27:23;;;;;;;;;;;22.20;38.80;;;;;;1571864;74;1940;-67
2021/05/07 03:29:25;;;;;;;;;;;22.20;38.80;;;;;;1572779;74;808;-67
2021/05/07 03:31:27;;;;;;;;;;;22.10;38.70;;;;;;1581586;74;735;-66
2021/05/07 03:33:29;;;;;;;;;;;22.20;38.70;;;;;;1577700;74;816;-66
2021/05/07 03:35:31;;;;;;;;;;;22.20;38.70;;;;;;1572485;74;849;-67
2021/05/07 03:37:33;;;;;;;;;;;22.20;38.60;;;;;;1573827;74;1118;-65
2021/05/07 03:39:35;;;;;;;;;;;22.10;38.60;;;;;;1571419;74;838;-66
2021/05/07 03:41:37;;;;;;;;;;;22.10;38.70;;;;;;1573778;74;749;-66
2021/05/07 03:43:39;;;;;;;;;;;22.20;38.60;;;;;;1567450;74;741;-66
2021/05/07 03:45:41;;;;;;;;;;;22.20;38.60;;;;;;1574968;74;661;-67
2021/05/07 03:47:43;;;;;;;;;;;22.10;38.70;;;;;;1577364;74;1937;-69
2021/05/07 03:49:45;;;;;;;;;;;22.20;38.60;;;;;;1574888;74;764;-67
2021/05/07 03:51:46;;;;;;;;;;;22.20;38.60;;;;;;1573139;74;798;-68
2021/05/07 03:53:48;;;;;;;;;;;22.20;38.60;;;;;;1575986;74;785;-65
2021/05/07 03:55:50;;;;;;;;;;;22.10;38.60;;;;;;1573947;74;761;-66
2021/05/07 03:57:52;;;;;;;;;;;22.20;38.50;;;;;;1577822;74;1126;-66
2021/05/07 03:59:54;;;;;;;;;;;22.10;38.50;;;;;;1578345;74;800;-66
2021/05/07 04:01:56;;;;;;;;;;;22.20;38.40;;;;;;1574395;74;856;-68
2021/05/07 04:03:58;;;;;;;;;;;22.20;38.50;;;;;;1567709;74;736;-67
2021/05/07 04:06:00;;;;;;;;;;;22.10;38.40;;;;;;1581179;74;750;-66
2021/05/07 04:08:12;;;;;;;;;;;22.20;38.50;;;;;;1579385;74;1922;-68
2021/05/07 04:10:18;;;;;;;;;;;22.20;38.50;;;;;;1576655;74;1752;-67
2021/05/07 04:13:29;;;;;;;;;;;22.20;38.40;;;;;;1560080;74;1608;-65
2021/05/07 04:14:22;;;;;;;;;;;22.20;38.40;;;;;;1566975;74;1467;-67
2021/05/07 04:16:24;;;;;;;;;;;22.20;38.40;;;;;;1570077;74;1132;-66
2021/05/07 04:18:26;;;;;;;;;;;22.30;38.40;;;;;;1564672;74;864;-65
2021/05/07 04:20:28;;;;;;;;;;;22.30;38.30;;;;;;1564609;74;786;-68
2021/05/07 04:22:29;;;;;;;;;;;22.30;38.30;;;;;;1558536;74;790;-67
2021/05/07 04:24:31;;;;;;;;;;;22.30;38.40;;;;;;1567830;74;847;-65
2021/05/07 04:26:33;;;;;;;;;;;22.30;38.40;;;;;;1572779;74;1125;-67
2021/05/07 04:28:35;;;;;;;;;;;22.30;38.40;;;;;;1570030;74;1908;-65
2021/05/07 04:30:37;;;;;;;;;;;22.30;38.40;;;;;;1567485;74;835;-67
2021/05/07 04:32:39;;;;;;;;;;;22.30;38.40;;;;;;1573692;74;798;-67
2021/05/07 04:34:41;;;;;;;;;;;22.30;38.40;;;;;;1570126;74;748;-67
2021/05/07 04:36:43;;;;;;;;;;;22.30;38.40;;;;;;1574535;74;1141;-67
2021/05/07 04:38:45;;;;;;;;;;;22.30;38.40;;;;;;1571767;74;765;-67
2021/05/07 04:40:47;;;;;;;;;;;22.30;38.40;;;;;;1565418;74;766;-66
2021/05/07 04:42:48;;;;;;;;;;;22.30;38.30;;;;;;1570715;74;741;-68
2021/05/07 04:44:50;;;;;;;;;;;22.30;38.30;;;;;;1577434;74;790;-70
2021/05/07 04:46:53;;;;;;;;;;;22.30;38.20;;;;;;1562715;74;1200;-69
2021/05/07 04:48:55;;;;;;;;;;;22.30;38.40;;;;;;1549537;74;1950;-69
2021/05/07 04:50:56;;;;;;;;;;;22.30;38.40;;;;;;1567264;74;947;-67
2021/05/07 04:52:58;;;;;;;;;;;22.30;38.40;;;;;;1561788;74;789;-69
2021/05/07 04:55:00;;;;;;;;;;;22.30;38.40;;;;;;1557711;74;760;-67
2021/05/07 04:57:02;;;;;;;;;;;22.30;38.40;;;;;;1560152;74;1069;-68
2021/05/07 04:59:04;;;;;;;;;;;22.30;38.40;;;;;;1560938;74;764;-69
2021/05/07 05:01:06;;;;;;;;;;;22.20;38.40;;;;;;1566001;74;769;-70
2021/05/07 05:03:08;;;;;;;;;;;22.30;38.40;;;;;;1568706;74;716;-69
2021/05/07 05:05:10;;;;;;;;;;;22.30;38.40;;;;;;1576857;74;792;-67
2021/05/07 05:07:12;;;;;;;;;;;22.30;38.40;;;;;;1573492;74;1205;-66
2021/05/07 05:09:14;;;;;;;;;;;22.30;38.30;;;;;;1569304;74;1947;-67
2021/05/07 05:11:16;;;;;;;;;;;22.30;38.40;;;;;;1570761;74;800;-65
2021/05/07 05:13:17;;;;;;;;;;;22.30;38.40;;;;;;1573987;74;820;-66
2021/05/07 05:15:20;;;;;;;;;;;22.30;38.20;;;;;;1571947;74;784;-65
2021/05/07 05:17:22;;;;;;;;;;;22.40;38.10;;;;;;1569660;74;1145;-67
2021/05/07 05:19:24;;;;;;;;;;;22.40;38.10;;;;;;1566147;74;749;-66
2021/05/07 05:21:26;;;;;;;;;;;22.40;37.90;;;;;;1571472;74;865;-67
2021/05/07 05:23:27;;;;;;;;;;;22.40;37.80;;;;;;1571220;74;785;-67
2021/05/07 05:25:29;;;;;;;;;;;22.40;37.90;;;;;;1568067;74;769;-66
2021/05/07 05:27:32;;;;;;;;;;;22.40;37.90;;;;;;1569253;74;1121;-67
2021/05/07 05:29:34;;;;;;;;;;;22.40;37.90;;;;;;1569904;74;1946;-67
2021/05/07 05:31:36;;;;;;;;;;;22.40;37.90;;;;;;1571067;74;788;-66
2021/05/07 05:33:38;;;;;;;;;;;22.40;38.00;;;;;;1572784;74;772;-68
2021/05/07 05:35:40;;;;;;;;;;;22.30;37.90;;;;;;1569769;74;727;-67
2021/05/07 05:37:42;;;;;;;;;;;22.40;37.90;;;;;;1568704;74;1126;-68
2021/05/07 05:39:44;;;;;;;;;;;22.40;38.00;;;;;;1572228;74;871;-68
2021/05/07 05:41:46;;;;;;;;;;;22.30;38.00;;;;;;1566605;74;726;-67
2021/05/07 05:43:52;;;;;;;;;;;22.30;38.00;;;;;;1567007;74;767;-64
2021/05/07 05:45:51;;;;;;;;;;;22.40;38.00;;;;;;1571049;74;1182;-68
2021/05/07 05:48:03;;;;;;;;;;;22.30;38.00;;;;;;1571268;74;1161;-68
2021/05/07 05:50:05;;;;;;;;;;;22.30;37.90;;;;;;1567920;74;720;-67
2021/05/07 05:52:07;;;;;;;;;;;22.40;37.90;;;;;;1568710;74;726;-66
2021/05/07 05:54:09;;;;;;;;;;;22.30;37.90;;;;;;1576375;74;769;-67
2021/05/07 05:56:13;;;;;;;;;;;22.30;38.00;;;;;;1574149;74;728;-67
2021/05/07 05:58:15;;;;;;;;;;;22.30;37.90;;;;;;1571752;74;685;-69
2021/05/07 06:00:17;;;;;;;;;;;22.30;37.90;;;;;;1570286;74;770;-68
2021/05/07 06:02:19;;;;;;;;;;;22.30;37.90;;;;;;1570492;74;690;-68
2021/05/07 06:04:20;;;;;;;;;;;22.30;38.00;;;;;;1570538;74;725;-70
2021/05/07 06:06:22;;;;;;;;;;;22.30;38.20;;;;;;1572867;74;1186;-70
2021/05/07 06:08:24;;;;;;;;;;;22.30;37.90;;;;;;1570612;74;1932;-70
2021/05/07 06:10:26;;;;;;;;;;;22.30;38.00;;;;;;1571346;74;720;-73
2021/05/07 06:12:28;;;;;;;;;;;22.30;37.90;;;;;;1573611;74;706;-72
2021/05/07 06:14:30;;;;;;;;;;;22.40;38.00;;;;;;1566949;74;692;-72
2021/05/07 06:16:32;;;;;;;;;;;22.30;38.20;;;;;;1572870;74;1119;-68
2021/05/07 06:18:33;;;;;;;;;;;22.40;38.20;;;;;;1572239;74;1342;-71
2021/05/07 06:20:35;;;;;;;;;;;22.40;38.20;;;;;;1569711;74;803;-73
2021/05/07 06:22:37;;;;;;;;;;;22.40;38.10;;;;;;1570612;74;745;-70
2021/05/07 06:24:39;;;;;;;;;;;22.40;38.10;;;;;;1564590;74;827;-70
2021/05/07 06:26:41;;;;;;;;;;;22.40;38.00;;;;;;1571554;74;1137;-73
2021/05/07 06:28:43;;;;;;;;;;;22.40;38.30;;;;;;1563675;74;1948;-73
2021/05/07 06:30:45;;;;;;;;;;;22.40;38.30;;;;;;1563310;74;774;-73
2021/05/07 06:32:47;;;;;;;;;;;22.40;38.30;;;;;;1574869;74;722;-71
2021/05/07 06:34:49;;;;;;;;;;;22.50;38.40;;;;;;1566751;74;769;-70
2021/05/07 06:36:50;;;;;;;;;;;22.40;38.40;;;;;;1564294;74;1143;-72
2021/05/07 06:38:52;;;;;;;;;;;22.50;38.30;;;;;;1566568;74;769;-71
2021/05/07 06:40:54;;;;;;;;;;;22.60;37.90;;;;;;1572137;74;710;-72
2021/05/07 06:42:56;;;;;;;;;;;22.60;37.80;;;;;;1572613;74;732;-72
2021/05/07 06:44:58;;;;;;;;;;;22.70;37.70;;;;;;1581384;74;624;-71
2021/05/07 06:47:01;;;;;;;;;;;22.70;37.40;;;;;;1575740;74;1163;-73
2021/05/07 06:49:03;;;;;;;;;;;22.80;37.20;;;;;;1572738;74;1918;-70
2021/05/07 06:51:05;;;;;;;;;;;22.80;37.00;;;;;;1569576;74;736;-69
2021/05/07 06:53:07;;;;;;;;;;;22.90;37.00;;;;;;1572762;74;761;-69
2021/05/07 06:55:11;;;;;;;;;;;22.90;36.80;;;;;;1568577;74;732;-68
2021/05/07 06:57:13;;;;;;;;;;;22.90;36.80;;;;;;1562301;74;1673;-69
2021/05/07 06:59:16;;;;;;;;;;;23.00;36.70;;;;;;1553766;74;813;-70
2021/05/07 07:01:18;;;;;;;;;;;22.90;36.70;;;;;;1560483;74;688;-72
2021/05/07 07:03:19;;;;;;;;;;;22.90;36.70;;;;;;1561361;74;781;-66
2021/05/07 07:05:21;;;;;;;;;;;22.80;36.60;;;;;;1576417;74;796;-71
2021/05/07 07:07:25;;;;;;;;;;;22.80;36.60;;;;;;1564760;74;1276;-71
2021/05/07 07:09:27;;;;;;;;;;;22.80;36.60;;;;;;1571655;74;1910;-72
2021/05/07 07:11:29;;;;;;;;;;;22.70;36.60;;;;;;1567933;74;776;-69
2021/05/07 07:13:31;;;;;;;;;;;22.80;36.60;;;;;;1570953;74;777;-69
2021/05/07 07:15:32;;;;;;;;;;;22.70;36.70;;;;;;1572069;74;821;-69
2021/05/07 07:17:35;;;;;;;;;;;22.70;36.70;;;;;;1573417;74;1134;-69
2021/05/07 07:19:37;;;;;;;;;;;22.70;36.80;;;;;;1573110;74;784;-69
2021/05/07 07:21:38;;;;;;;;;;;22.70;36.80;;;;;;1568278;74;804;-69
2021/05/07 07:23:40;;;;;;;;;;;22.70;36.80;;;;;;1559711;74;786;-69
2021/05/07 07:25:42;;;;;;;;;;;22.80;36.60;;;;;;1566909;74;762;-75
2021/05/07 07:27:44;;;;;;;;;;;22.80;36.80;;;;;;1567277;74;1129;-74
2021/05/07 07:29:47;;;;;;;;;;;22.80;36.60;;;;;;1562963;74;1931;-73
2021/05/07 07:31:50;;;;;;;;;;;22.70;36.50;;;;;;1567846;74;707;-73
2021/05/07 07:33:52;;;;;;;;;;;22.80;36.40;;;;;;1567604;74;746;-74
2021/05/07 07:35:54;;;;;;;;;;;22.80;36.40;;;;;;1572487;74;774;-74
2021/05/07 07:37:56;;;;;;;;;;;22.80;36.40;;;;;;1569579;74;1071;-75
2021/05/07 07:39:58;;;;;;;;;;;22.80;36.30;;;;;;1569709;74;787;-74
2021/05/07 07:41:59;;;;;;;;;;;22.70;36.40;;;;;;1573081;74;751;-73
2021/05/07 07:44:01;;;;;;;;;;;22.80;36.30;;;;;;1568848;74;652;-73
2021/05/07 07:46:03;;;;;;;;;;;22.80;36.30;;;;;;1572743;74;731;-73
2021/05/07 07:48:05;;;;;;;;;;;22.80;36.20;;;;;;1580398;74;1153;-72
2021/05/07 07:50:08;;;;;;;;;;;22.80;36.30;;;;;;1575325;74;1930;-72
2021/05/07 07:52:10;;;;;;;;;;;22.80;36.20;;;;;;1569401;74;761;-72
2021/05/07 07:54:12;;;;;;;;;;;22.80;36.10;;;;;;1568950;74;764;-72
2021/05/07 07:56:14;;;;;;;;;;;22.80;36.10;;;;;;1573714;74;823;-72
2021/05/07 07:58:18;;;;;;;;;;;22.90;36.20;;;;;;1561953;74;217213;-55
2021/05/07 08:00:19;;;;;;;;;;;22.90;36.10;;;;;;1546110;75;1519;-56
2021/05/07 08:02:22;;;;;;;;;;;22.90;36.00;;;;;;1589589;73;718;-56
2021/05/07 08:04:23;;;;;;;;;;;22.90;36.00;;;;;;1586597;73;700;-54
2021/05/07 08:06:26;;;;;;;;;;;22.90;35.90;;;;;;1585030;73;741;-55
2021/05/07 08:08:27;;;;;;;;;;;22.90;35.80;;;;;;1589079;73;769;-55
2021/05/07 08:10:29;;;;;;;;;;;22.90;35.80;;;;;;1580834;73;1930;-54
2021/05/07 08:12:31;;;;;;;;;;;22.90;35.70;;;;;;1584273;73;702;-55
2021/05/07 08:14:33;;;;;;;;;;;22.90;35.80;;;;;;1594336;73;735;-53
2021/05/07 08:16:35;;;;;;;;;;;22.90;35.80;;;;;;1589765;73;813;-51
2021/05/07 08:18:37;;;;;;;;;;;22.90;35.70;;;;;;1586865;73;736;-56
2021/05/07 08:20:39;;;;;;;;;;;22.80;35.50;;;;;;1587115;73;1134;-55
2021/05/07 08:22:41;;;;;;;;;;;22.80;35.70;;;;;;1599294;73;786;-55
2021/05/07 08:24:42;;;;;;;;;;;22.80;35.60;;;;;;1591411;73;748;-55
2021/05/07 08:26:44;;;;;;;;;;;22.80;35.60;;;;;;1589644;73;717;-54
2021/05/07 08:28:46;;;;;;;;;;;22.80;35.70;;;;;;1589704;73;713;-54
2021/05/07 08:30:48;;;;;;;;;;;22.70;35.80;;;;;;1589695;73;1974;-53
2021/05/07 08:32:50;;;;;;;;;;;22.70;35.80;;;;;;1592077;73;738;-52
2021/05/07 08:34:52;;;;;;;;;;;22.70;35.70;;;;;;1589772;73;824;-55
2021/05/07 08:36:54;;;;;;;;;;;22.70;35.70;;;;;;1583383;73;803;-55
2021/05/07 08:38:56;;;;;;;;;;;22.60;35.70;;;;;;1583578;73;689;-54
2021/05/07 08:40:59;;;;;;;;;;;22.60;35.70;;;;;;1577814;73;1105;-55
2021/05/07 08:43:01;;;;;;;;;;;22.60;35.70;;;;;;1582673;73;2044;-54
2021/05/07 08:45:04;;;;;;;;;;;22.60;35.80;;;;;;1588718;73;785;-54
2021/05/07 08:47:05;;;;;;;;;;;22.60;35.80;;;;;;1583654;73;867;-53
2021/05/07 08:49:09;;;;;;;;;;;22.60;35.70;;;;;;1582741;73;773;-54
2021/05/07 08:51:11;;;;;;;;;;;22.60;35.60;;;;;;1578922;73;1933;-57
2021/05/07 08:53:13;;;;;;;;;;;22.60;35.70;;;;;;1585709;73;728;-57
2021/05/07 08:55:14;;;;;;;;;;;22.70;35.70;;;;;;1588810;73;919;-57
2021/05/07 08:57:17;;;;;;;;;;;22.60;35.60;;;;;;1593598;73;697;-56
2021/05/07 08:59:18;;;;;;;;;;;22.70;35.70;;;;;;1584061;73;1091;-56
2021/05/07 09:01:20;;;;;;;;;;;22.60;35.60;;;;;;1589269;73;675;-57
2021/05/07 09:03:22;;;;;;;;;;;22.60;35.60;;;;;;1588389;73;757;-53
2021/05/07 09:05:31;;;;;;;;;;;22.60;35.50;;;;;;1588841;73;805;-53
2021/05/07 09:07:33;;;;;;;;;;;22.60;35.70;;;;;;1588621;73;730;-56
2021/05/07 09:09:35;;;;;;;;;;;22.60;35.40;;;;;;1592000;73;1950;-53
2021/05/07 09:11:38;;;;;;;;;;;22.60;35.50;;;;;;1589999;73;778;-56
2021/05/07 09:13:40;;;;;;;;;;;22.60;35.50;;;;;;1591413;73;1625;-52
2021/05/07 09:15:45;;;;;;;;;;;22.60;35.50;;;;;;1591976;73;706;-54
2021/05/07 09:17:47;;;;;;;;;;;22.50;35.70;;;;;;1588200;73;803;-56
2021/05/07 09:19:49;;;;;;;;;;;22.40;35.80;;;;;;1588332;73;1138;-53
2021/05/07 09:21:51;;;;;;;;;;;22.40;36.00;;;;;;1587606;73;749;-54
2021/05/07 09:23:53;;;;;;;;;;;22.30;36.20;;;;;;1588618;73;749;-58
2021/05/07 09:26:01;;;;;;;;;;;22.30;36.30;;;;;;1591420;73;842;-59
2021/05/07 09:28:07;;;;;;;;;;;22.30;36.40;;;;;;1577746;74;754;-58
2021/05/07 09:30:29;;;;;;;;;;;22.30;36.50;;;;;;1578818;74;1949;-58
2021/05/07 09:32:31;;;;;;;;;;;22.30;36.60;;;;;;1584302;74;837;-57
2021/05/07 09:34:36;;;;;;;;;;;22.30;36.70;;;;;;1580529;74;756;-57
2021/05/07 09:36:38;;;;;;;;;;;22.20;36.70;;;;;;1577587;74;670;-59
2021/05/07 09:38:40;;;;;;;;;;;22.30;36.80;;;;;;1550716;75;756;-59
2021/05/07 09:40:42;;;;;;;;;;;22.20;36.80;;;;;;1580663;74;1116;-58
2021/05/07 09:42:44;;;;;;;;;;;22.20;36.80;;;;;;1581931;74;766;-58
2021/05/07 09:44:46;;;;;;;;;;;22.20;36.70;;;;;;1580307;74;837;-59
2021/05/07 09:46:48;;;;;;;;;;;22.20;36.70;;;;;;1587172;74;747;-58
2021/05/07 09:48:50;;;;;;;;;;;22.20;36.60;;;;;;1585912;74;787;-59
2021/05/07 09:50:53;;;;;;;;;;;22.30;36.80;;;;;;1583025;74;1949;-58
2021/05/07 09:52:55;;;;;;;;;;;22.20;36.50;;;;;;1584031;74;1895;-59
2021/05/07 09:54:57;;;;;;;;;;;22.20;36.60;;;;;;1583218;74;715;-58
2021/05/07 09:57:00;;;;;;;;;;;22.20;36.50;;;;;;1580859;74;736;-59
2021/05/07 09:59:03;;;;;;;;;;;22.30;36.50;;;;;;1578934;74;771;-58
2021/05/07 10:01:05;;;;;;;;;;;22.40;36.40;;;;;;1576179;74;1165;-59
2021/05/07 10:03:07;;;;;;;;;;;22.40;36.40;;;;;;1552664;75;849;-59
2021/05/07 10:05:09;;;;;;;;;;;22.30;36.50;;;;;;1584440;74;827;-59
2021/05/07 10:07:11;;;;;;;;;;;22.30;36.60;;;;;;1576761;74;675;-59
2021/05/07 10:09:14;;;;;;;;;;;22.30;36.60;;;;;;1571187;74;764;-56
2021/05/07 10:11:17;;;;;;;;;;;22.30;36.60;;;;;;1563063;74;1934;-59
2021/05/07 10:13:20;;;;;;;;;;;22.30;36.50;;;;;;1562038;74;793;-59
2021/05/07 10:15:29;;;;;;;;;;;22.30;36.60;;;;;;1569769;74;1858;-56
2021/05/07 10:17:31;;;;;;;;;;;22.30;36.60;;;;;;1570281;74;786;-57
2021/05/07 10:19:35;;;;;;;;;;;22.30;36.60;;;;;;1562126;74;1102;-57
2021/05/07 10:21:38;;;;;;;;;;;22.40;36.50;;;;;;1568354;74;1870;-53
2021/05/07 10:23:53;;;;;;;;;;;22.40;36.50;;;;;;1567049;74;1005;-56
2021/05/07 10:25:59;;;;;;;;;;;22.40;36.40;;;;;;1567534;74;706;-53
2021/05/07 10:28:01;;;;;;;;;;;22.30;36.50;;;;;;1576405;74;782;-53
2021/05/07 10:30:04;;;;;;;;;;;22.30;36.50;;;;;;1570582;74;1951;-57
2021/05/07 10:32:06;;;;;;;;;;;22.30;36.50;;;;;;1567654;74;694;-57
2021/05/07 10:34:08;;;;;;;;;;;22.40;36.30;;;;;;1556962;74;659;-55
2021/05/07 10:36:09;;;;;;;;;;;22.40;36.30;;;;;;1563517;74;704;-53
2021/05/07 10:38:12;;;;;;;;;;;22.40;36.30;;;;;;1571951;74;750;-57
2021/05/07 10:40:16;;;;;;;;;;;22.40;36.20;;;;;;1559717;74;1106;-56
2021/05/07 10:42:18;;;;;;;;;;;22.40;36.00;;;;;;1564404;74;1086;-53
2021/05/07 10:44:23;;;;;;;;;;;22.30;36.10;;;;;;1573283;74;716;-53
2021/05/07 10:46:25;;;;;;;;;;;22.40;36.20;;;;;;1563770;74;696;-57
2021/05/07 10:48:27;;;;;;;;;;;22.40;36.30;;;;;;1566660;74;791;-57
2021/05/07 10:50:29;;;;;;;;;;;22.30;36.30;;;;;;1564684;74;1934;-59
2021/05/07 10:52:33;;;;;;;;;;;22.40;36.30;;;;;;1540784;75;1251;-57
2021/05/07 10:54:38;;;;;;;;;;;22.40;36.30;;;;;;1574486;74;1003;-56
2021/05/07 10:56:40;;;;;;;;;;;22.30;36.40;;;;;;1569285;74;1662;-57
2021/05/07 10:58:41;;;;;;;;;;;22.40;36.50;;;;;;1568974;74;772;-57
2021/05/07 11:00:43;;;;;;;;;;;22.50;36.30;;;;;;1568851;74;1153;-57
2021/05/07 11:02:46;;;;;;;;;;;22.50;36.00;;;;;;1569636;74;793;-57
2021/05/07 11:04:49;;;;;;;;;;;22.60;35.90;;;;;;1577718;74;740;-57
2021/05/07 11:07:00;;;;;;;;;;;22.60;35.80;;;;;;1579802;74;815;-56
2021/05/07 11:09:16;;;;;;;;;;;22.70;35.70;;;;;;1572938;74;743;-57
2021/05/07 11:11:18;;;;;;;;;;;22.70;35.60;;;;;;1569183;74;1923;-56
2021/05/07 11:13:20;;;;;;;;;;;22.60;35.40;;;;;;1556662;74;734;-54
2021/05/07 11:15:22;;;;;;;;;;;22.70;35.50;;;;;;1571386;74;821;-55
2021/05/07 11:17:24;;;;;;;;;;;22.80;35.40;;;;;;1564390;74;788;-53
2021/05/07 11:19:29;;;;;;;;;;;22.70;35.40;;;;;;1570390;74;1131;-58
2021/05/07 11:21:31;;;;;;;;;;;22.70;35.40;;;;;;1570387;74;771;-57
2021/05/07 11:23:33;;;;;;;;;;;22.80;35.30;;;;;;1575698;74;685;-56
2021/05/07 11:25:35;;;;;;;;;;;22.80;35.20;;;;;;1567410;74;709;-56
2021/05/07 11:27:38;;;;;;;;;;;22.80;35.10;;;;;;1561601;74;673;-56
2021/05/07 11:29:39;;;;;;;;;;;22.80;35.00;;;;;;1576208;74;1136;-57
2021/05/07 11:31:41;;;;;;;;;;;22.80;35.00;;;;;;1564417;74;1930;-57
2021/05/07 11:33:43;;;;;;;;;;;22.90;35.00;;;;;;1573046;74;592;-56
2021/05/07 11:35:45;;;;;;;;;;;22.90;35.00;;;;;;1563492;74;719;-56
2021/05/07 11:37:49;;;;;;;;;;;22.80;34.90;;;;;;1567312;74;683;-55
2021/05/07 11:39:57;;;;;;;;;;;22.80;34.90;;;;;;1558662;74;1577;-57
2021/05/07 11:41:59;;;;;;;;;;;22.80;34.90;;;;;;1575086;74;797;-57
2021/05/07 11:44:02;;;;;;;;;;;22.80;35.00;;;;;;1566948;74;815;-57
2021/05/07 11:46:08;;;;;;;;;;;22.70;35.10;;;;;;1569637;74;1837;-57
2021/05/07 11:48:10;;;;;;;;;;;22.80;35.20;;;;;;1573608;74;788;-56
2021/05/07 11:50:13;;;;;;;;;;;22.80;35.10;;;;;;1565298;74;1943;-57
2021/05/07 11:52:14;;;;;;;;;;;22.90;35.10;;;;;;1561842;74;654;-56
2021/05/07 11:54:16;;;;;;;;;;;22.90;35.00;;;;;;1564062;74;727;-56
2021/05/07 11:56:20;;;;;;;;;;;22.90;34.80;;;;;;1573802;74;744;-56
2021/05/07 11:58:24;;;;;;;;;;;23.00;34.70;;;;;;1572767;74;746;-53
2021/05/07 12:00:25;;;;;;;;;;;22.90;34.70;;;;;;1579342;74;1750;-55
2021/05/07 12:02:32;;;;;;;;;;;22.90;34.60;;;;;;1571881;74;741;-55
2021/05/07 12:04:46;;;;;;;;;;;22.90;34.70;;;;;;1581627;74;769;-57
2021/05/07 12:06:48;;;;;;;;;;;22.90;34.70;;;;;;1573813;74;1133;-54
2021/05/07 12:08:50;;;;;;;;;;;22.70;35.00;;;;;;1578246;74;781;-54
2021/05/07 12:10:52;;;;;;;;;;;22.60;35.30;;;;;;1573045;74;1945;-54